WetterOnline ( https://www.wetteronline.de )

Wetter aktuell Ribnitz-Damgarten

Aktuelles Wetter: Rostock-Warnemünde (10m)

6-stündlich | Neueste Meldungen
Ortszeit Temperatur Wetter
Mi, 16.06. 20:00 24.7° C wolkenlos
Mi, 16.06. 14:00 22.9° C wolkenlos
Mi, 16.06. 8:00 16.4° C wolkenlos
Mi, 16.06. 2:00 13.5° C wolkenlos
Di, 15.06. 20:00 17.7° C wolkenlos
Di, 15.06. 14:00 16.6° C fast wolkenlos
Di, 15.06. 8:00 15.1° C wolkig
Di, 15.06. 2:00 16.8° C bewölkt
Ortszeit Temperatur Wetter
Mi, 16.06. 23:00 18.0° C wolkig
Mi, 16.06. 22:50 18.0° C wolkig
Mi, 16.06. 22:40 18.3° C wolkig
Mi, 16.06. 22:30 18.8° C wolkig
Mi, 16.06. 22:20 18.8° C wolkig
Mi, 16.06. 22:10 19.1° C wolkig
Mi, 16.06. 22:00 19.8° C wolkig
Mi, 16.06. 21:30 20.7° C wolkig
Mi, 16.06. 21:00 21.8° C -
Mi, 16.06. 20:30 23.1° C fast wolkenlos
Mi, 16.06. 20:00 24.7° C wolkenlos
Ortszeit Relative Feuchte Sichtweite
Mi, 16.06. 20:00 41% 45 km
Mi, 16.06. 14:00 44% 40 km
Mi, 16.06. 8:00 59% 40 km
Mi, 16.06. 2:00 70% 40 km
Di, 15.06. 20:00 50% 35 km
Di, 15.06. 14:00 60% 35 km
Di, 15.06. 8:00 76% 35 km
Di, 15.06. 2:00 89% 11 km
Ortszeit Relative Feuchte Sichtweite
Mi, 16.06. 23:00 69% 40 km
Mi, 16.06. 22:50 69% -
Mi, 16.06. 22:40 69% -
Mi, 16.06. 22:30 68% 40 km
Mi, 16.06. 22:20 68% -
Mi, 16.06. 22:10 67% -
Mi, 16.06. 22:00 64% 45 km
Mi, 16.06. 21:30 62% 40 km
Mi, 16.06. 21:00 57% 45 km
Mi, 16.06. 20:30 52% 40 km
Mi, 16.06. 20:00 41% 45 km
Ortszeit Niederschlagsmenge Niederschlagsart
Mi, 16.06. 20:00 0.0 l/m2 in 12 Std. -
Mi, 16.06. 14:00 0.0 l/m2 in 6 Std. -
Mi, 16.06. 8:00 0.0 l/m2 in 12 Std. -
Mi, 16.06. 2:00 0.0 l/m2 in 6 Std. -
Di, 15.06. 20:00 0.0 l/m2 in 12 Std. -
Di, 15.06. 14:00 0.0 l/m2 in 6 Std. -
Di, 15.06. 8:00 0.0 l/m2 in 12 Std. -
Di, 15.06. 2:00 0.0 l/m2 in 6 Std. -
Ortszeit Niederschlagsmenge Niederschlagsart
Mi, 16.06. 23:00 0.0 l/m2 in 1 Std. -
Mi, 16.06. 22:50 keine Meldung -
Mi, 16.06. 22:40 keine Meldung -
Mi, 16.06. 22:30 0.0 l/m2 in 1 Std. -
Mi, 16.06. 22:20 keine Meldung -
Mi, 16.06. 22:10 keine Meldung -
Mi, 16.06. 22:00 0.0 l/m2 in 1 Std. -
Mi, 16.06. 21:30 0.0 l/m2 in 1 Std. -
Mi, 16.06. 21:00 0.0 l/m2 in 1 Std. -
Mi, 16.06. 20:30 0.0 l/m2 in 1 Std. -
Mi, 16.06. 20:00 0.0 l/m2 in 1 Std. -
Ortszeit Stärke Spitze Richtung
km/h Bft. km/h Grad Sektor
Mi, 16.06. 20:00 13 3 30 120° SO
Mi, 16.06. 14:00 9 2 24 60° NO
Mi, 16.06. 8:00 7 2 14 170° S
Mi, 16.06. 2:00 7 2 14 180° S
Di, 15.06. 20:00 7 2 22 290° W
Di, 15.06. 14:00 15 3 28 300° NW
Di, 15.06. 8:00 25 4 36 340° N
Di, 15.06. 2:00 20 4 30 300° NW
Ortszeit Stärke Spitze Richtung
km/h Bft. km/h Grad Sektor
Mi, 16.06. 23:00 20 4 30 130° SO
Mi, 16.06. 22:50 20 4 - 130° SO
Mi, 16.06. 22:40 18 3 - 130° SO
Mi, 16.06. 22:30 18 3 29 130° SO
Mi, 16.06. 22:20 18 3 - 130° SO
Mi, 16.06. 22:10 18 3 - 130° SO
Mi, 16.06. 22:00 17 3 30 130° SO
Mi, 16.06. 21:30 14 3 29 120° SO
Mi, 16.06. 21:00 14 3 29 110° O
Mi, 16.06. 20:30 13 3 22 100° O
Mi, 16.06. 20:00 13 3 26 120° SO
Ortszeit Untergrenze Bedeckung Gattung
total tief tief mittel hoch
Mi, 16.06. 20:00 - 0/8 0/8 - - -
Mi, 16.06. 14:00 - 0/8 0/8 - - -
Mi, 16.06. 8:00 - 0/8 0/8 - - -
Mi, 16.06. 2:00 - 0/8 0/8 - - -
Di, 15.06. 20:00 - 0/8 0/8 - - -
Di, 15.06. 14:00 6900 m 1/8 1/8 - - -
Di, 15.06. 8:00 480 m 7/8 3/8 - - -
Di, 15.06. 2:00 1800 m 8/8 4/8 - - -
Ortszeit Bedeckungsgrad in Achtel und Wolkenuntergrenze
Mi, 16.06. 23:00 2(9000m) 8(10500m)
Mi, 16.06. 22:50 2(9000m) 8(10500m)
Mi, 16.06. 22:40 2(9000m) 8(10500m) 8(12000m)
Mi, 16.06. 22:30 8(10500m) 8(12000m) 8(12000m)
Mi, 16.06. 22:20 8(10500m) 8(12000m)
Mi, 16.06. 22:10 8(10500m) 8(12000m)
Mi, 16.06. 22:00 8(10500m) 8(12000m)
Mi, 16.06. 21:30 6(10500m) 7(10500m)
Mi, 16.06. 21:00 -
Mi, 16.06. 20:30 1(10500m)
Mi, 16.06. 20:00 keine Wolken
Ortszeit Luftdruck NN (hPa) Tendenz (hPa in 3 Std.)
Mi, 16.06. 20:00 1016 - 1,1
Mi, 16.06. 14:00 1018 - 1,2
Mi, 16.06. 8:00 1020 + 0,3
Mi, 16.06. 2:00 1020 - 0,4
Di, 15.06. 20:00 1020 - 0,9
Di, 15.06. 14:00 1021 + 0,4
Di, 15.06. 8:00 1020 + 1,6
Di, 15.06. 2:00 1018 + 0,3
Ortszeit Luftdruck NN (hPa) Tendenz (hPa in 3 Std.)
Mi, 16.06. 23:00 1017 + 0,4
Mi, 16.06. 22:50 1017 keine Meldung
Mi, 16.06. 22:40 1017 keine Meldung
Mi, 16.06. 22:30 1017 + 0,3
Mi, 16.06. 22:20 1017 keine Meldung
Mi, 16.06. 22:10 1016 keine Meldung
Mi, 16.06. 22:00 1016 0,0
Mi, 16.06. 21:30 1016 - 0,1
Mi, 16.06. 21:00 1016 - 0,5
Mi, 16.06. 20:30 1016 - 1,0
Mi, 16.06. 20:00 1016 - 1,1
Ortszeit Schneehöhe (cm)
Mi, 16.06. 20:00 -
Mi, 16.06. 14:00 -
Mi, 16.06. 8:00 -
Mi, 16.06. 2:00 -
Di, 15.06. 20:00 -
Di, 15.06. 14:00 -
Di, 15.06. 8:00 -
Di, 15.06. 2:00 -
Ortszeit Schneehöhe (cm)
Mi, 16.06. 23:00 -
Mi, 16.06. 22:50 -
Mi, 16.06. 22:40 -
Mi, 16.06. 22:30 -
Mi, 16.06. 22:20 -
Mi, 16.06. 22:10 -
Mi, 16.06. 22:00 -
Mi, 16.06. 21:30 -
Mi, 16.06. 21:00 -
Mi, 16.06. 20:30 -
Mi, 16.06. 20:00 -
Link zu dieser Seite / Seite empfehlen

Das Wetter in ...